sensor_id;sensor_type;location;lat;lon;timestamp;P1;durP1;ratioP1;P2;durP2;ratioP2
5355;SDS011;70449;52.486;13.386;2023-12-14T00:00:07;19.87;;;10.97;;
5355;SDS011;70449;52.486;13.386;2023-12-14T00:02:33;22.50;;;10.20;;
5355;SDS011;70449;52.486;13.386;2023-12-14T00:05:02;25.23;;;11.20;;
5355;SDS011;70449;52.486;13.386;2023-12-14T00:07:30;29.63;;;11.67;;
5355;SDS011;70449;52.486;13.386;2023-12-14T00:09:58;26.30;;;12.20;;
5355;SDS011;70449;52.486;13.386;2023-12-14T00:12:25;26.57;;;11.30;;
5355;SDS011;70449;52.486;13.386;2023-12-14T00:14:52;22.77;;;11.20;;
5355;SDS011;70449;52.486;13.386;2023-12-14T00:17:19;24.73;;;10.80;;
5355;SDS011;70449;52.486;13.386;2023-12-14T00:19:47;25.83;;;11.47;;
5355;SDS011;70449;52.486;13.386;2023-12-14T00:22:15;23.70;;;11.00;;
5355;SDS011;70449;52.486;13.386;2023-12-14T00:24:42;20.87;;;12.33;;
5355;SDS011;70449;52.486;13.386;2023-12-14T00:27:10;26.03;;;12.43;;
5355;SDS011;70449;52.486;13.386;2023-12-14T00:29:37;25.20;;;11.30;;
5355;SDS011;70449;52.486;13.386;2023-12-14T00:32:06;24.43;;;11.20;;
5355;SDS011;70449;52.486;13.386;2023-12-14T00:34:33;27.70;;;12.60;;
5355;SDS011;70449;52.486;13.386;2023-12-14T00:37:01;23.93;;;11.50;;
5355;SDS011;70449;52.486;13.386;2023-12-14T00:39:30;23.83;;;10.43;;
5355;SDS011;70449;52.486;13.386;2023-12-14T00:41:57;28.37;;;12.73;;
5355;SDS011;70449;52.486;13.386;2023-12-14T00:44:24;32.67;;;12.67;;
5355;SDS011;70449;52.486;13.386;2023-12-14T00:46:51;23.50;;;12.00;;
5355;SDS011;70449;52.486;13.386;2023-12-14T00:49:19;28.07;;;11.83;;
5355;SDS011;70449;52.486;13.386;2023-12-14T00:51:46;22.13;;;12.07;;
5355;SDS011;70449;52.486;13.386;2023-12-14T00:54:13;27.60;;;12.03;;
5355;SDS011;70449;52.486;13.386;2023-12-14T00:56:42;28.40;;;11.50;;
5355;SDS011;70449;52.486;13.386;2023-12-14T00:59:09;23.20;;;11.13;;
5355;SDS011;70449;52.486;13.386;2023-12-14T01:01:36;29.27;;;11.47;;
5355;SDS011;70449;52.486;13.386;2023-12-14T01:04:04;24.13;;;12.03;;
5355;SDS011;70449;52.486;13.386;2023-12-14T01:06:30;27.30;;;10.77;;
5355;SDS011;70449;52.486;13.386;2023-12-14T01:08:58;26.67;;;12.50;;
5355;SDS011;70449;52.486;13.386;2023-12-14T01:11:25;22.93;;;11.30;;
5355;SDS011;70449;52.486;13.386;2023-12-14T01:13:54;21.13;;;10.63;;
5355;SDS011;70449;52.486;13.386;2023-12-14T01:16:21;21.87;;;10.70;;
5355;SDS011;70449;52.486;13.386;2023-12-14T01:18:52;33.47;;;10.73;;
5355;SDS011;70449;52.486;13.386;2023-12-14T01:21:19;25.43;;;11.27;;
5355;SDS011;70449;52.486;13.386;2023-12-14T01:23:47;22.00;;;11.50;;
5355;SDS011;70449;52.486;13.386;2023-12-14T01:26:14;23.57;;;10.70;;
5355;SDS011;70449;52.486;13.386;2023-12-14T01:28:43;19.47;;;10.37;;
5355;SDS011;70449;52.486;13.386;2023-12-14T01:31:11;33.23;;;11.90;;
5355;SDS011;70449;52.486;13.386;2023-12-14T01:33:38;22.93;;;10.93;;
5355;SDS011;70449;52.486;13.386;2023-12-14T01:36:06;23.57;;;10.40;;
5355;SDS011;70449;52.486;13.386;2023-12-14T01:38:34;22.60;;;10.27;;
5355;SDS011;70449;52.486;13.386;2023-12-14T01:41:01;26.77;;;10.40;;
5355;SDS011;70449;52.486;13.386;2023-12-14T01:43:29;17.53;;;9.57;;
5355;SDS011;70449;52.486;13.386;2023-12-14T01:45:56;23.53;;;9.40;;
5355;SDS011;70449;52.486;13.386;2023-12-14T01:48:25;22.60;;;10.37;;
5355;SDS011;70449;52.486;13.386;2023-12-14T01:50:55;21.87;;;11.10;;
5355;SDS011;70449;52.486;13.386;2023-12-14T01:53:22;17.10;;;8.27;;
5355;SDS011;70449;52.486;13.386;2023-12-14T01:55:52;24.67;;;9.13;;
5355;SDS011;70449;52.486;13.386;2023-12-14T01:58:19;14.93;;;8.70;;
5355;SDS011;70449;52.486;13.386;2023-12-14T02:00:52;19.13;;;9.50;;
5355;SDS011;70449;52.486;13.386;2023-12-14T02:03:29;20.40;;;8.50;;
5355;SDS011;70449;52.486;13.386;2023-12-14T02:05:56;15.47;;;8.70;;
5355;SDS011;70449;52.486;13.386;2023-12-14T02:08:26;19.33;;;9.37;;
5355;SDS011;70449;52.486;13.386;2023-12-14T02:10:54;16.87;;;8.73;;
5355;SDS011;70449;52.486;13.386;2023-12-14T02:13:21;11.43;;;7.10;;
5355;SDS011;70449;52.486;13.386;2023-12-14T02:15:48;15.70;;;7.60;;
5355;SDS011;70449;52.486;13.386;2023-12-14T02:18:18;15.73;;;8.40;;
5355;SDS011;70449;52.486;13.386;2023-12-14T02:20:47;11.43;;;7.03;;
5355;SDS011;70449;52.486;13.386;2023-12-14T02:23:16;11.77;;;6.20;;
5355;SDS011;70449;52.486;13.386;2023-12-14T02:25:43;15.50;;;6.90;;
5355;SDS011;70449;52.486;13.386;2023-12-14T02:28:10;11.80;;;6.57;;
5355;SDS011;70449;52.486;13.386;2023-12-14T02:30:36;14.03;;;6.33;;
5355;SDS011;70449;52.486;13.386;2023-12-14T02:33:04;12.93;;;6.60;;
5355;SDS011;70449;52.486;13.386;2023-12-14T02:35:31;12.83;;;6.70;;
5355;SDS011;70449;52.486;13.386;2023-12-14T02:37:58;10.73;;;6.23;;
5355;SDS011;70449;52.486;13.386;2023-12-14T02:40:27;14.47;;;7.27;;
5355;SDS011;70449;52.486;13.386;2023-12-14T02:42:56;12.80;;;7.83;;
5355;SDS011;70449;52.486;13.386;2023-12-14T02:45:23;10.17;;;7.03;;
5355;SDS011;70449;52.486;13.386;2023-12-14T02:47:51;14.37;;;7.40;;
5355;SDS011;70449;52.486;13.386;2023-12-14T02:50:19;16.43;;;8.93;;
5355;SDS011;70449;52.486;13.386;2023-12-14T02:52:46;18.03;;;9.10;;
5355;SDS011;70449;52.486;13.386;2023-12-14T02:55:13;25.33;;;9.70;;
5355;SDS011;70449;52.486;13.386;2023-12-14T02:57:42;12.83;;;8.60;;
5355;SDS011;70449;52.486;13.386;2023-12-14T03:00:10;22.87;;;9.50;;
5355;SDS011;70449;52.486;13.386;2023-12-14T03:02:39;16.13;;;8.83;;
5355;SDS011;70449;52.486;13.386;2023-12-14T03:05:07;18.73;;;9.70;;
5355;SDS011;70449;52.486;13.386;2023-12-14T03:07:35;18.37;;;9.17;;
5355;SDS011;70449;52.486;13.386;2023-12-14T03:10:02;14.13;;;8.67;;
5355;SDS011;70449;52.486;13.386;2023-12-14T03:12:33;15.03;;;9.00;;
5355;SDS011;70449;52.486;13.386;2023-12-14T03:15:02;19.80;;;9.10;;
5355;SDS011;70449;52.486;13.386;2023-12-14T03:17:29;17.40;;;9.27;;
5355;SDS011;70449;52.486;13.386;2023-12-14T03:19:57;14.07;;;8.27;;
5355;SDS011;70449;52.486;13.386;2023-12-14T03:22:24;13.53;;;8.50;;
5355;SDS011;70449;52.486;13.386;2023-12-14T03:24:51;21.53;;;9.23;;
5355;SDS011;70449;52.486;13.386;2023-12-14T03:27:18;26.63;;;9.70;;
5355;SDS011;70449;52.486;13.386;2023-12-14T03:29:47;18.33;;;9.30;;
5355;SDS011;70449;52.486;13.386;2023-12-14T03:32:16;22.00;;;8.50;;
5355;SDS011;70449;52.486;13.386;2023-12-14T03:34:43;17.20;;;7.80;;
5355;SDS011;70449;52.486;13.386;2023-12-14T03:37:11;24.93;;;9.53;;
5355;SDS011;70449;52.486;13.386;2023-12-14T03:39:38;17.13;;;8.70;;
5355;SDS011;70449;52.486;13.386;2023-12-14T03:42:05;14.23;;;8.80;;
5355;SDS011;70449;52.486;13.386;2023-12-14T03:44:32;17.70;;;9.90;;
5355;SDS011;70449;52.486;13.386;2023-12-14T03:47:00;16.70;;;9.87;;
5355;SDS011;70449;52.486;13.386;2023-12-14T03:49:28;24.27;;;10.30;;
5355;SDS011;70449;52.486;13.386;2023-12-14T03:51:55;31.10;;;10.10;;
5355;SDS011;70449;52.486;13.386;2023-12-14T03:54:23;17.43;;;8.60;;
5355;SDS011;70449;52.486;13.386;2023-12-14T03:56:50;13.27;;;9.27;;
5355;SDS011;70449;52.486;13.386;2023-12-14T03:59:17;17.37;;;8.80;;
5355;SDS011;70449;52.486;13.386;2023-12-14T04:01:45;24.37;;;9.97;;
5355;SDS011;70449;52.486;13.386;2023-12-14T04:04:13;23.73;;;8.43;;
5355;SDS011;70449;52.486;13.386;2023-12-14T04:06:41;16.17;;;8.53;;
5355;SDS011;70449;52.486;13.386;2023-12-14T04:09:09;20.03;;;9.57;;
5355;SDS011;70449;52.486;13.386;2023-12-14T04:11:36;15.83;;;8.40;;
5355;SDS011;70449;52.486;13.386;2023-12-14T04:14:04;15.97;;;8.10;;
5355;SDS011;70449;52.486;13.386;2023-12-14T04:16:31;21.40;;;9.27;;
5355;SDS011;70449;52.486;13.386;2023-12-14T04:18:58;16.40;;;8.20;;
5355;SDS011;70449;52.486;13.386;2023-12-14T04:21:25;15.83;;;7.67;;
5355;SDS011;70449;52.486;13.386;2023-12-14T04:23:54;14.53;;;8.53;;
5355;SDS011;70449;52.486;13.386;2023-12-14T04:26:22;14.50;;;8.50;;
5355;SDS011;70449;52.486;13.386;2023-12-14T04:28:49;12.70;;;7.40;;
5355;SDS011;70449;52.486;13.386;2023-12-14T04:31:17;24.07;;;8.33;;
5355;SDS011;70449;52.486;13.386;2023-12-14T04:33:44;13.90;;;8.17;;
5355;SDS011;70449;52.486;13.386;2023-12-14T04:36:11;18.97;;;7.77;;
5355;SDS011;70449;52.486;13.386;2023-12-14T04:38:38;13.90;;;7.57;;
5355;SDS011;70449;52.486;13.386;2023-12-14T04:41:09;12.67;;;6.93;;
5355;SDS011;70449;52.486;13.386;2023-12-14T04:43:36;14.80;;;7.53;;
5355;SDS011;70449;52.486;13.386;2023-12-14T04:46:03;22.83;;;9.60;;
5355;SDS011;70449;52.486;13.386;2023-12-14T04:48:31;17.80;;;7.70;;
5355;SDS011;70449;52.486;13.386;2023-12-14T04:50:58;19.17;;;9.10;;
5355;SDS011;70449;52.486;13.386;2023-12-14T04:53:26;15.60;;;8.07;;
5355;SDS011;70449;52.486;13.386;2023-12-14T04:55:53;15.77;;;8.40;;
5355;SDS011;70449;52.486;13.386;2023-12-14T04:58:21;12.07;;;7.90;;
5355;SDS011;70449;52.486;13.386;2023-12-14T05:00:49;25.53;;;9.87;;
5355;SDS011;70449;52.486;13.386;2023-12-14T05:03:16;10.97;;;7.60;;
5355;SDS011;70449;52.486;13.386;2023-12-14T05:05:43;19.77;;;8.37;;
5355;SDS011;70449;52.486;13.386;2023-12-14T05:08:10;20.33;;;8.90;;
5355;SDS011;70449;52.486;13.386;2023-12-14T05:10:37;20.23;;;7.87;;
5355;SDS011;70449;52.486;13.386;2023-12-14T05:13:05;16.37;;;8.07;;
5355;SDS011;70449;52.486;13.386;2023-12-14T05:15:33;13.60;;;7.60;;
5355;SDS011;70449;52.486;13.386;2023-12-14T05:18:01;23.80;;;9.63;;
5355;SDS011;70449;52.486;13.386;2023-12-14T05:20:28;22.83;;;9.50;;
5355;SDS011;70449;52.486;13.386;2023-12-14T05:22:55;16.90;;;8.70;;
5355;SDS011;70449;52.486;13.386;2023-12-14T05:25:22;12.60;;;7.30;;
5355;SDS011;70449;52.486;13.386;2023-12-14T05:27:50;16.47;;;8.20;;
5355;SDS011;70449;52.486;13.386;2023-12-14T05:30:17;17.83;;;9.00;;
5355;SDS011;70449;52.486;13.386;2023-12-14T05:32:45;14.87;;;8.57;;
5355;SDS011;70449;52.486;13.386;2023-12-14T05:35:12;11.57;;;8.37;;
5355;SDS011;70449;52.486;13.386;2023-12-14T05:37:40;17.37;;;7.40;;
5355;SDS011;70449;52.486;13.386;2023-12-14T05:40:07;15.03;;;9.60;;
5355;SDS011;70449;52.486;13.386;2023-12-14T05:42:36;16.50;;;9.40;;
5355;SDS011;70449;52.486;13.386;2023-12-14T05:45:04;23.00;;;9.10;;
5355;SDS011;70449;52.486;13.386;2023-12-14T05:47:32;15.60;;;9.00;;
5355;SDS011;70449;52.486;13.386;2023-12-14T05:50:01;16.60;;;9.20;;
5355;SDS011;70449;52.486;13.386;2023-12-14T05:52:30;20.23;;;9.00;;
5355;SDS011;70449;52.486;13.386;2023-12-14T05:54:58;17.47;;;9.60;;
5355;SDS011;70449;52.486;13.386;2023-12-14T05:57:25;13.63;;;7.40;;
5355;SDS011;70449;52.486;13.386;2023-12-14T05:59:52;15.37;;;8.83;;
5355;SDS011;70449;52.486;13.386;2023-12-14T06:02:19;16.00;;;8.20;;
5355;SDS011;70449;52.486;13.386;2023-12-14T06:04:46;12.57;;;7.80;;
5355;SDS011;70449;52.486;13.386;2023-12-14T06:07:15;14.07;;;8.30;;
5355;SDS011;70449;52.486;13.386;2023-12-14T06:09:43;9.97;;;7.33;;
5355;SDS011;70449;52.486;13.386;2023-12-14T06:12:10;15.63;;;9.90;;
5355;SDS011;70449;52.486;13.386;2023-12-14T06:14:39;12.13;;;8.27;;
5355;SDS011;70449;52.486;13.386;2023-12-14T06:17:07;11.67;;;7.17;;
5355;SDS011;70449;52.486;13.386;2023-12-14T06:19:34;16.13;;;8.33;;
5355;SDS011;70449;52.486;13.386;2023-12-14T06:22:02;12.30;;;7.70;;
5355;SDS011;70449;52.486;13.386;2023-12-14T06:24:31;9.20;;;7.10;;
5355;SDS011;70449;52.486;13.386;2023-12-14T06:27:01;15.87;;;7.47;;
5355;SDS011;70449;52.486;13.386;2023-12-14T06:29:29;12.47;;;6.83;;
5355;SDS011;70449;52.486;13.386;2023-12-14T06:31:56;15.30;;;7.10;;
5355;SDS011;70449;52.486;13.386;2023-12-14T06:34:23;17.52;;;8.43;;
5355;SDS011;70449;52.486;13.386;2023-12-14T06:36:50;19.23;;;8.40;;
5355;SDS011;70449;52.486;13.386;2023-12-14T06:39:17;12.77;;;7.03;;
5355;SDS011;70449;52.486;13.386;2023-12-14T06:41:46;11.60;;;7.70;;
5355;SDS011;70449;52.486;13.386;2023-12-14T06:44:13;10.00;;;6.87;;
5355;SDS011;70449;52.486;13.386;2023-12-14T06:46:43;12.70;;;6.60;;
5355;SDS011;70449;52.486;13.386;2023-12-14T06:49:10;12.77;;;7.30;;
5355;SDS011;70449;52.486;13.386;2023-12-14T06:51:37;8.23;;;6.63;;
5355;SDS011;70449;52.486;13.386;2023-12-14T06:54:10;13.83;;;7.07;;
5355;SDS011;70449;52.486;13.386;2023-12-14T06:56:38;10.77;;;7.10;;
5355;SDS011;70449;52.486;13.386;2023-12-14T06:59:09;9.10;;;6.60;;
5355;SDS011;70449;52.486;13.386;2023-12-14T07:01:39;9.27;;;7.03;;
5355;SDS011;70449;52.486;13.386;2023-12-14T07:04:06;9.80;;;6.57;;
5355;SDS011;70449;52.486;13.386;2023-12-14T07:06:41;8.70;;;6.33;;
5355;SDS011;70449;52.486;13.386;2023-12-14T07:09:08;13.67;;;8.50;;
5355;SDS011;70449;52.486;13.386;2023-12-14T07:11:36;14.27;;;7.67;;
5355;SDS011;70449;52.486;13.386;2023-12-14T07:14:03;11.10;;;7.33;;
5355;SDS011;70449;52.486;13.386;2023-12-14T07:16:32;10.43;;;7.77;;
5355;SDS011;70449;52.486;13.386;2023-12-14T07:18:59;13.40;;;7.70;;
5355;SDS011;70449;52.486;13.386;2023-12-14T07:21:27;11.13;;;7.70;;
5355;SDS011;70449;52.486;13.386;2023-12-14T07:23:55;12.43;;;7.73;;
5355;SDS011;70449;52.486;13.386;2023-12-14T07:26:22;14.87;;;9.13;;
5355;SDS011;70449;52.486;13.386;2023-12-14T07:28:51;15.10;;;8.10;;
5355;SDS011;70449;52.486;13.386;2023-12-14T07:31:36;10.07;;;6.90;;
5355;SDS011;70449;52.486;13.386;2023-12-14T07:34:03;13.50;;;7.90;;
5355;SDS011;70449;52.486;13.386;2023-12-14T07:36:31;10.37;;;7.37;;
5355;SDS011;70449;52.486;13.386;2023-12-14T07:38:58;11.07;;;7.60;;
5355;SDS011;70449;52.486;13.386;2023-12-14T07:41:26;13.00;;;8.30;;
5355;SDS011;70449;52.486;13.386;2023-12-14T07:43:55;21.67;;;9.27;;
5355;SDS011;70449;52.486;13.386;2023-12-14T07:46:23;15.43;;;8.47;;
5355;SDS011;70449;52.486;13.386;2023-12-14T07:48:52;17.30;;;8.83;;
5355;SDS011;70449;52.486;13.386;2023-12-14T07:51:19;14.20;;;8.40;;
5355;SDS011;70449;52.486;13.386;2023-12-14T07:53:47;18.07;;;9.23;;
5355;SDS011;70449;52.486;13.386;2023-12-14T07:56:15;11.00;;;7.30;;
5355;SDS011;70449;52.486;13.386;2023-12-14T07:58:42;13.37;;;8.83;;
5355;SDS011;70449;52.486;13.386;2023-12-14T08:01:09;14.80;;;8.87;;
5355;SDS011;70449;52.486;13.386;2023-12-14T08:03:37;19.57;;;10.83;;
5355;SDS011;70449;52.486;13.386;2023-12-14T08:06:10;16.53;;;8.40;;
5355;SDS011;70449;52.486;13.386;2023-12-14T08:08:41;11.73;;;8.50;;
5355;SDS011;70449;52.486;13.386;2023-12-14T08:11:08;19.13;;;10.07;;
5355;SDS011;70449;52.486;13.386;2023-12-14T08:13:41;17.77;;;9.90;;
5355;SDS011;70449;52.486;13.386;2023-12-14T08:16:26;18.10;;;10.03;;
5355;SDS011;70449;52.486;13.386;2023-12-14T08:18:54;23.60;;;10.30;;
5355;SDS011;70449;52.486;13.386;2023-12-14T08:21:32;15.00;;;9.47;;
5355;SDS011;70449;52.486;13.386;2023-12-14T08:24:03;16.83;;;10.30;;
5355;SDS011;70449;52.486;13.386;2023-12-14T08:26:31;18.13;;;10.70;;
5355;SDS011;70449;52.486;13.386;2023-12-14T08:29:01;18.63;;;10.53;;
5355;SDS011;70449;52.486;13.386;2023-12-14T08:31:38;20.10;;;9.60;;
5355;SDS011;70449;52.486;13.386;2023-12-14T08:34:07;14.63;;;10.00;;
5355;SDS011;70449;52.486;13.386;2023-12-14T08:36:36;17.70;;;10.67;;
5355;SDS011;70449;52.486;13.386;2023-12-14T08:39:03;17.57;;;10.90;;
5355;SDS011;70449;52.486;13.386;2023-12-14T08:41:30;20.40;;;11.60;;
5355;SDS011;70449;52.486;13.386;2023-12-14T08:43:58;17.47;;;10.47;;
5355;SDS011;70449;52.486;13.386;2023-12-14T08:46:25;20.97;;;12.67;;
5355;SDS011;70449;52.486;13.386;2023-12-14T08:48:52;23.73;;;12.47;;
5355;SDS011;70449;52.486;13.386;2023-12-14T08:51:20;18.60;;;9.90;;
5355;SDS011;70449;52.486;13.386;2023-12-14T08:53:53;25.03;;;10.60;;
5355;SDS011;70449;52.486;13.386;2023-12-14T08:56:23;14.80;;;9.20;;
5355;SDS011;70449;52.486;13.386;2023-12-14T08:58:50;17.30;;;10.13;;
5355;SDS011;70449;52.486;13.386;2023-12-14T09:01:19;16.30;;;10.00;;
5355;SDS011;70449;52.486;13.386;2023-12-14T09:03:49;18.30;;;11.20;;
5355;SDS011;70449;52.486;13.386;2023-12-14T09:06:17;18.37;;;10.70;;
5355;SDS011;70449;52.486;13.386;2023-12-14T09:08:44;18.23;;;11.10;;
5355;SDS011;70449;52.486;13.386;2023-12-14T09:11:13;22.40;;;12.27;;
5355;SDS011;70449;52.486;13.386;2023-12-14T09:13:42;25.23;;;12.27;;
5355;SDS011;70449;52.486;13.386;2023-12-14T09:16:12;17.03;;;10.40;;
5355;SDS011;70449;52.486;13.386;2023-12-14T09:18:39;24.07;;;11.47;;
5355;SDS011;70449;52.486;13.386;2023-12-14T09:21:07;19.53;;;10.80;;
5355;SDS011;70449;52.486;13.386;2023-12-14T09:23:34;22.43;;;11.00;;
5355;SDS011;70449;52.486;13.386;2023-12-14T09:26:02;19.30;;;10.83;;
5355;SDS011;70449;52.486;13.386;2023-12-14T09:28:32;16.07;;;10.53;;
5355;SDS011;70449;52.486;13.386;2023-12-14T09:30:59;16.87;;;10.70;;
5355;SDS011;70449;52.486;13.386;2023-12-14T09:33:26;16.77;;;9.93;;
5355;SDS011;70449;52.486;13.386;2023-12-14T09:35:53;25.23;;;12.50;;
5355;SDS011;70449;52.486;13.386;2023-12-14T09:38:23;20.77;;;10.93;;
5355;SDS011;70449;52.486;13.386;2023-12-14T09:40:51;19.10;;;10.33;;
5355;SDS011;70449;52.486;13.386;2023-12-14T09:43:19;16.50;;;10.00;;
5355;SDS011;70449;52.486;13.386;2023-12-14T09:45:51;19.93;;;9.73;;
5355;SDS011;70449;52.486;13.386;2023-12-14T09:48:26;16.87;;;11.03;;
5355;SDS011;70449;52.486;13.386;2023-12-14T09:50:54;17.27;;;10.97;;
5355;SDS011;70449;52.486;13.386;2023-12-14T09:53:22;20.53;;;11.03;;
5355;SDS011;70449;52.486;13.386;2023-12-14T09:55:51;36.37;;;11.30;;
5355;SDS011;70449;52.486;13.386;2023-12-14T09:58:18;16.33;;;10.13;;
5355;SDS011;70449;52.486;13.386;2023-12-14T10:00:46;45.43;;;11.57;;
5355;SDS011;70449;52.486;13.386;2023-12-14T10:03:21;26.00;;;10.70;;
5355;SDS011;70449;52.486;13.386;2023-12-14T10:05:51;14.53;;;9.47;;
5355;SDS011;70449;52.486;13.386;2023-12-14T10:08:19;19.83;;;10.63;;
5355;SDS011;70449;52.486;13.386;2023-12-14T10:10:48;16.50;;;10.27;;
5355;SDS011;70449;52.486;13.386;2023-12-14T10:13:21;19.27;;;10.00;;
5355;SDS011;70449;52.486;13.386;2023-12-14T10:16:04;19.83;;;12.03;;
5355;SDS011;70449;52.486;13.386;2023-12-14T10:18:32;14.07;;;8.60;;
5355;SDS011;70449;52.486;13.386;2023-12-14T10:21:05;13.00;;;8.53;;
5355;SDS011;70449;52.486;13.386;2023-12-14T10:23:36;16.43;;;9.10;;
5355;SDS011;70449;52.486;13.386;2023-12-14T10:26:07;16.03;;;9.13;;
5355;SDS011;70449;52.486;13.386;2023-12-14T10:28:38;16.80;;;9.50;;
5355;SDS011;70449;52.486;13.386;2023-12-14T10:31:08;15.73;;;9.90;;
5355;SDS011;70449;52.486;13.386;2023-12-14T10:33:37;19.17;;;9.07;;
5355;SDS011;70449;52.486;13.386;2023-12-14T10:36:05;21.93;;;9.80;;
5355;SDS011;70449;52.486;13.386;2023-12-14T10:38:35;15.17;;;9.80;;
5355;SDS011;70449;52.486;13.386;2023-12-14T10:41:04;14.70;;;9.90;;
5355;SDS011;70449;52.486;13.386;2023-12-14T10:43:33;19.53;;;9.83;;
5355;SDS011;70449;52.486;13.386;2023-12-14T10:46:04;17.27;;;10.80;;
5355;SDS011;70449;52.486;13.386;2023-12-14T10:48:36;19.80;;;12.23;;
5355;SDS011;70449;52.486;13.386;2023-12-14T10:51:07;18.80;;;11.10;;
5355;SDS011;70449;52.486;13.386;2023-12-14T10:53:36;17.73;;;10.20;;
5355;SDS011;70449;52.486;13.386;2023-12-14T10:56:05;17.73;;;10.17;;
5355;SDS011;70449;52.486;13.386;2023-12-14T10:58:46;15.33;;;10.40;;
5355;SDS011;70449;52.486;13.386;2023-12-14T11:01:19;20.50;;;10.73;;
5355;SDS011;70449;52.486;13.386;2023-12-14T11:03:55;17.50;;;10.87;;
5355;SDS011;70449;52.486;13.386;2023-12-14T11:06:28;18.70;;;9.90;;
5355;SDS011;70449;52.486;13.386;2023-12-14T11:08:58;21.50;;;11.50;;
5355;SDS011;70449;52.486;13.386;2023-12-14T11:11:37;19.27;;;11.60;;
5355;SDS011;70449;52.486;13.386;2023-12-14T11:14:12;16.47;;;10.50;;
5355;SDS011;70449;52.486;13.386;2023-12-14T11:16:43;16.93;;;9.60;;
5355;SDS011;70449;52.486;13.386;2023-12-14T11:19:29;19.80;;;10.47;;
5355;SDS011;70449;52.486;13.386;2023-12-14T11:22:10;18.17;;;11.43;;
5355;SDS011;70449;52.486;13.386;2023-12-14T11:24:50;21.90;;;10.60;;
5355;SDS011;70449;52.486;13.386;2023-12-14T11:27:20;24.40;;;10.60;;
5355;SDS011;70449;52.486;13.386;2023-12-14T11:29:53;17.60;;;10.87;;
5355;SDS011;70449;52.486;13.386;2023-12-14T11:32:21;20.47;;;10.93;;
5355;SDS011;70449;52.486;13.386;2023-12-14T11:34:52;17.50;;;9.90;;
5355;SDS011;70449;52.486;13.386;2023-12-14T11:37:21;20.23;;;11.73;;
5355;SDS011;70449;52.486;13.386;2023-12-14T11:39:49;21.43;;;11.97;;
5355;SDS011;70449;52.486;13.386;2023-12-14T11:42:18;25.50;;;11.07;;
5355;SDS011;70449;52.486;13.386;2023-12-14T11:44:45;22.03;;;11.73;;
5355;SDS011;70449;52.486;13.386;2023-12-14T11:47:13;25.43;;;12.40;;
5355;SDS011;70449;52.486;13.386;2023-12-14T11:49:40;30.87;;;11.37;;
5355;SDS011;70449;52.486;13.386;2023-12-14T11:52:09;30.37;;;11.87;;
5355;SDS011;70449;52.486;13.386;2023-12-14T11:54:37;21.90;;;11.53;;
5355;SDS011;70449;52.486;13.386;2023-12-14T11:57:08;33.63;;;12.87;;
5355;SDS011;70449;52.486;13.386;2023-12-14T11:59:37;17.00;;;10.30;;
5355;SDS011;70449;52.486;13.386;2023-12-14T12:02:04;26.60;;;11.53;;
5355;SDS011;70449;52.486;13.386;2023-12-14T12:04:34;31.20;;;11.83;;
5355;SDS011;70449;52.486;13.386;2023-12-14T12:07:03;15.17;;;9.23;;
5355;SDS011;70449;52.486;13.386;2023-12-14T12:09:39;26.50;;;11.30;;
5355;SDS011;70449;52.486;13.386;2023-12-14T12:12:09;23.50;;;10.57;;
5355;SDS011;70449;52.486;13.386;2023-12-14T12:14:38;22.17;;;11.20;;
5355;SDS011;70449;52.486;13.386;2023-12-14T12:17:09;18.70;;;10.30;;
5355;SDS011;70449;52.486;13.386;2023-12-14T12:19:36;17.67;;;10.70;;
5355;SDS011;70449;52.486;13.386;2023-12-14T12:22:04;22.80;;;11.30;;
5355;SDS011;70449;52.486;13.386;2023-12-14T12:24:31;24.13;;;11.83;;
5355;SDS011;70449;52.486;13.386;2023-12-14T12:27:00;26.57;;;12.10;;
5355;SDS011;70449;52.486;13.386;2023-12-14T12:29:30;32.90;;;11.00;;
5355;SDS011;70449;52.486;13.386;2023-12-14T12:32:04;67.03;;;13.87;;
5355;SDS011;70449;52.486;13.386;2023-12-14T12:34:40;20.13;;;11.23;;
5355;SDS011;70449;52.486;13.386;2023-12-14T12:37:08;34.67;;;11.20;;
5355;SDS011;70449;52.486;13.386;2023-12-14T12:39:35;18.07;;;9.80;;
5355;SDS011;70449;52.486;13.386;2023-12-14T12:42:05;20.93;;;11.90;;
5355;SDS011;70449;52.486;13.386;2023-12-14T12:44:33;20.30;;;11.60;;
5355;SDS011;70449;52.486;13.386;2023-12-14T12:47:00;23.43;;;11.40;;
5355;SDS011;70449;52.486;13.386;2023-12-14T12:49:30;23.57;;;11.43;;
5355;SDS011;70449;52.486;13.386;2023-12-14T12:51:57;17.67;;;11.07;;
5355;SDS011;70449;52.486;13.386;2023-12-14T12:54:25;18.67;;;10.77;;
5355;SDS011;70449;52.486;13.386;2023-12-14T12:56:54;20.27;;;10.93;;
5355;SDS011;70449;52.486;13.386;2023-12-14T12:59:22;16.53;;;9.57;;
5355;SDS011;70449;52.486;13.386;2023-12-14T13:01:49;18.57;;;8.97;;
5355;SDS011;70449;52.486;13.386;2023-12-14T13:04:19;22.20;;;10.53;;
5355;SDS011;70449;52.486;13.386;2023-12-14T13:06:47;44.77;;;13.40;;
5355;SDS011;70449;52.486;13.386;2023-12-14T13:09:16;27.83;;;12.83;;
5355;SDS011;70449;52.486;13.386;2023-12-14T13:11:45;27.90;;;12.77;;
5355;SDS011;70449;52.486;13.386;2023-12-14T13:14:13;22.40;;;10.83;;
5355;SDS011;70449;52.486;13.386;2023-12-14T13:16:42;33.27;;;10.80;;
5355;SDS011;70449;52.486;13.386;2023-12-14T13:19:10;18.77;;;11.43;;
5355;SDS011;70449;52.486;13.386;2023-12-14T13:21:37;16.03;;;10.07;;
5355;SDS011;70449;52.486;13.386;2023-12-14T13:24:05;20.17;;;12.07;;
5355;SDS011;70449;52.486;13.386;2023-12-14T13:26:32;19.00;;;10.30;;
5355;SDS011;70449;52.486;13.386;2023-12-14T13:29:00;33.03;;;11.27;;
5355;SDS011;70449;52.486;13.386;2023-12-14T13:31:28;19.50;;;10.40;;
5355;SDS011;70449;52.486;13.386;2023-12-14T13:33:56;33.47;;;11.77;;
5355;SDS011;70449;52.486;13.386;2023-12-14T13:36:24;24.47;;;11.30;;
5355;SDS011;70449;52.486;13.386;2023-12-14T13:38:51;19.00;;;10.37;;
5355;SDS011;70449;52.486;13.386;2023-12-14T13:41:19;20.37;;;11.60;;
5355;SDS011;70449;52.486;13.386;2023-12-14T13:43:46;17.73;;;10.20;;
5355;SDS011;70449;52.486;13.386;2023-12-14T13:46:13;20.23;;;12.23;;
5355;SDS011;70449;52.486;13.386;2023-12-14T13:48:41;30.00;;;12.80;;
5355;SDS011;70449;52.486;13.386;2023-12-14T13:51:09;28.23;;;11.43;;
5355;SDS011;70449;52.486;13.386;2023-12-14T13:53:37;28.17;;;11.20;;
5355;SDS011;70449;52.486;13.386;2023-12-14T13:56:04;28.03;;;11.57;;
5355;SDS011;70449;52.486;13.386;2023-12-14T13:58:35;19.67;;;11.97;;
5355;SDS011;70449;52.486;13.386;2023-12-14T14:01:03;25.10;;;13.17;;
5355;SDS011;70449;52.486;13.386;2023-12-14T14:03:32;19.70;;;11.63;;
5355;SDS011;70449;52.486;13.386;2023-12-14T14:06:00;28.53;;;12.87;;
5355;SDS011;70449;52.486;13.386;2023-12-14T14:08:30;28.20;;;13.23;;
5355;SDS011;70449;52.486;13.386;2023-12-14T14:10:57;21.80;;;12.40;;
5355;SDS011;70449;52.486;13.386;2023-12-14T14:13:26;19.87;;;11.57;;
5355;SDS011;70449;52.486;13.386;2023-12-14T14:15:56;38.60;;;12.43;;
5355;SDS011;70449;52.486;13.386;2023-12-14T14:18:27;23.97;;;11.60;;
5355;SDS011;70449;52.486;13.386;2023-12-14T14:20:55;28.30;;;11.07;;
5355;SDS011;70449;52.486;13.386;2023-12-14T14:23:22;27.40;;;12.20;;
5355;SDS011;70449;52.486;13.386;2023-12-14T14:25:57;23.30;;;12.03;;
5355;SDS011;70449;52.486;13.386;2023-12-14T14:28:25;25.23;;;11.90;;
5355;SDS011;70449;52.486;13.386;2023-12-14T14:30:54;31.50;;;12.67;;
5355;SDS011;70449;52.486;13.386;2023-12-14T14:33:22;23.33;;;11.07;;
5355;SDS011;70449;52.486;13.386;2023-12-14T14:35:50;27.63;;;12.20;;